Terminal Aerodrome Forecast
Issued by NWS

Home | Current Version | Previous Version | Text Only | Print | Product List | Glossary On
Versions: 1 2 3 4 5 6 7 8 9 10 11 12 13 14 15 16 17 18 19 20 21
000
FTUS43 KDTX 121120
TAFDET
TAF
KDET 121120Z 1212/1312 32018G30KT P6SM -SHSN SCT025 BKN035
     FM121400 31018G30KT P6SM BKN045
     FM130100 30012KT P6SM SCT040
     FM130900 26007KT P6SM BKN035=

USA.gov is the U.S. government's official web portal to all federal, state and local government web resources and services.